sensor_id;sensor_type;location;lat;lon;timestamp;P1;durP1;ratioP1;P2;durP2;ratioP2
5742;SDS011;2896;53.500;10.020;2023-04-06T00:02:06;4.60;;;4.23;;
5742;SDS011;2896;53.500;10.020;2023-04-06T00:04:33;5.47;;;4.87;;
5742;SDS011;2896;53.500;10.020;2023-04-06T00:07:00;5.20;;;4.80;;
5742;SDS011;2896;53.500;10.020;2023-04-06T00:09:26;8.70;;;5.33;;
5742;SDS011;2896;53.500;10.020;2023-04-06T00:11:53;5.90;;;5.30;;
5742;SDS011;2896;53.500;10.020;2023-04-06T00:14:20;7.13;;;5.20;;
5742;SDS011;2896;53.500;10.020;2023-04-06T00:16:46;5.10;;;4.70;;
5742;SDS011;2896;53.500;10.020;2023-04-06T00:19:14;5.83;;;5.30;;
5742;SDS011;2896;53.500;10.020;2023-04-06T00:21:41;6.63;;;5.10;;
5742;SDS011;2896;53.500;10.020;2023-04-06T00:24:08;5.20;;;4.70;;
5742;SDS011;2896;53.500;10.020;2023-04-06T00:26:34;10.37;;;6.10;;
5742;SDS011;2896;53.500;10.020;2023-04-06T00:29:01;8.53;;;5.40;;
5742;SDS011;2896;53.500;10.020;2023-04-06T00:31:28;11.20;;;5.97;;
5742;SDS011;2896;53.500;10.020;2023-04-06T00:33:54;7.27;;;5.40;;
5742;SDS011;2896;53.500;10.020;2023-04-06T00:36:23;9.20;;;5.67;;
5742;SDS011;2896;53.500;10.020;2023-04-06T00:38:50;7.57;;;6.00;;
5742;SDS011;2896;53.500;10.020;2023-04-06T00:41:17;6.77;;;6.03;;
5742;SDS011;2896;53.500;10.020;2023-04-06T00:43:43;7.33;;;5.20;;
5742;SDS011;2896;53.500;10.020;2023-04-06T00:46:10;9.10;;;5.70;;
5742;SDS011;2896;53.500;10.020;2023-04-06T00:48:37;6.47;;;5.60;;
5742;SDS011;2896;53.500;10.020;2023-04-06T00:51:04;6.73;;;5.83;;
5742;SDS011;2896;53.500;10.020;2023-04-06T00:53:32;17.13;;;7.00;;
5742;SDS011;2896;53.500;10.020;2023-04-06T00:55:59;7.90;;;6.13;;
5742;SDS011;2896;53.500;10.020;2023-04-06T00:58:25;7.27;;;6.53;;
5742;SDS011;2896;53.500;10.020;2023-04-06T01:00:52;5.50;;;4.90;;
5742;SDS011;2896;53.500;10.020;2023-04-06T01:03:19;6.77;;;5.67;;
5742;SDS011;2896;53.500;10.020;2023-04-06T01:05:46;7.10;;;5.63;;
5742;SDS011;2896;53.500;10.020;2023-04-06T01:08:12;6.83;;;6.00;;
5742;SDS011;2896;53.500;10.020;2023-04-06T01:10:41;6.77;;;6.07;;
5742;SDS011;2896;53.500;10.020;2023-04-06T01:13:07;9.53;;;6.97;;
5742;SDS011;2896;53.500;10.020;2023-04-06T01:15:34;7.30;;;6.10;;
5742;SDS011;2896;53.500;10.020;2023-04-06T01:18:03;7.03;;;6.33;;
5742;SDS011;2896;53.500;10.020;2023-04-06T01:20:31;8.83;;;6.50;;
5742;SDS011;2896;53.500;10.020;2023-04-06T01:22:59;10.50;;;6.10;;
5742;SDS011;2896;53.500;10.020;2023-04-06T01:25:26;7.27;;;6.00;;
5742;SDS011;2896;53.500;10.020;2023-04-06T01:27:53;8.57;;;6.77;;
5742;SDS011;2896;53.500;10.020;2023-04-06T01:30:19;6.70;;;5.90;;
5742;SDS011;2896;53.500;10.020;2023-04-06T01:32:46;6.87;;;6.00;;
5742;SDS011;2896;53.500;10.020;2023-04-06T01:35:13;9.87;;;6.23;;
5742;SDS011;2896;53.500;10.020;2023-04-06T01:37:39;6.53;;;5.93;;
5742;SDS011;2896;53.500;10.020;2023-04-06T01:40:08;9.03;;;6.53;;
5742;SDS011;2896;53.500;10.020;2023-04-06T01:42:36;5.87;;;5.30;;
5742;SDS011;2896;53.500;10.020;2023-04-06T01:45:03;8.87;;;6.37;;
5742;SDS011;2896;53.500;10.020;2023-04-06T01:47:30;7.00;;;5.50;;
5742;SDS011;2896;53.500;10.020;2023-04-06T01:49:57;6.83;;;6.10;;
5742;SDS011;2896;53.500;10.020;2023-04-06T01:52:23;8.80;;;6.13;;
5742;SDS011;2896;53.500;10.020;2023-04-06T01:54:50;6.63;;;5.67;;
5742;SDS011;2896;53.500;10.020;2023-04-06T01:57:18;6.53;;;5.50;;
5742;SDS011;2896;53.500;10.020;2023-04-06T01:59:45;5.80;;;5.27;;
5742;SDS011;2896;53.500;10.020;2023-04-06T02:02:11;8.70;;;6.57;;
5742;SDS011;2896;53.500;10.020;2023-04-06T02:04:38;6.50;;;5.80;;
5742;SDS011;2896;53.500;10.020;2023-04-06T02:07:05;7.87;;;6.07;;
5742;SDS011;2896;53.500;10.020;2023-04-06T02:09:32;12.37;;;7.10;;
5742;SDS011;2896;53.500;10.020;2023-04-06T02:11:58;7.60;;;6.20;;
5742;SDS011;2896;53.500;10.020;2023-04-06T02:14:27;6.13;;;5.40;;
5742;SDS011;2896;53.500;10.020;2023-04-06T02:16:54;7.13;;;6.37;;
5742;SDS011;2896;53.500;10.020;2023-04-06T02:19:20;12.97;;;9.40;;
5742;SDS011;2896;53.500;10.020;2023-04-06T02:21:47;13.27;;;8.33;;
5742;SDS011;2896;53.500;10.020;2023-04-06T02:24:14;7.60;;;6.77;;
5742;SDS011;2896;53.500;10.020;2023-04-06T02:26:41;8.90;;;6.90;;
5742;SDS011;2896;53.500;10.020;2023-04-06T02:29:07;11.07;;;8.10;;
5742;SDS011;2896;53.500;10.020;2023-04-06T02:31:36;7.00;;;6.07;;
5742;SDS011;2896;53.500;10.020;2023-04-06T02:34:02;6.50;;;5.63;;
5742;SDS011;2896;53.500;10.020;2023-04-06T02:36:29;6.97;;;6.13;;
5742;SDS011;2896;53.500;10.020;2023-04-06T02:38:56;8.67;;;6.40;;
5742;SDS011;2896;53.500;10.020;2023-04-06T02:41:22;8.47;;;6.00;;
5742;SDS011;2896;53.500;10.020;2023-04-06T02:43:49;11.43;;;6.90;;
5742;SDS011;2896;53.500;10.020;2023-04-06T02:46:15;7.70;;;6.87;;
5742;SDS011;2896;53.500;10.020;2023-04-06T02:48:43;6.97;;;6.30;;
5742;SDS011;2896;53.500;10.020;2023-04-06T02:51:10;6.77;;;6.07;;
5742;SDS011;2896;53.500;10.020;2023-04-06T02:53:37;7.60;;;6.30;;
5742;SDS011;2896;53.500;10.020;2023-04-06T02:56:03;7.33;;;6.60;;
5742;SDS011;2896;53.500;10.020;2023-04-06T02:58:30;6.73;;;6.10;;
5742;SDS011;2896;53.500;10.020;2023-04-06T03:00:57;6.57;;;5.60;;
5742;SDS011;2896;53.500;10.020;2023-04-06T03:03:24;8.73;;;6.30;;
5742;SDS011;2896;53.500;10.020;2023-04-06T03:05:53;13.30;;;6.50;;
5742;SDS011;2896;53.500;10.020;2023-04-06T03:08:21;8.67;;;7.40;;
5742;SDS011;2896;53.500;10.020;2023-04-06T03:10:47;8.10;;;6.90;;
5742;SDS011;2896;53.500;10.020;2023-04-06T03:13:14;9.03;;;7.73;;
5742;SDS011;2896;53.500;10.020;2023-04-06T03:15:41;9.57;;;7.47;;
5742;SDS011;2896;53.500;10.020;2023-04-06T03:18:08;13.87;;;9.63;;
5742;SDS011;2896;53.500;10.020;2023-04-06T03:20:34;12.87;;;8.47;;
5742;SDS011;2896;53.500;10.020;2023-04-06T03:23:02;11.30;;;9.10;;
5742;SDS011;2896;53.500;10.020;2023-04-06T03:25:29;11.50;;;8.10;;
5742;SDS011;2896;53.500;10.020;2023-04-06T03:27:56;9.40;;;8.33;;
5742;SDS011;2896;53.500;10.020;2023-04-06T03:30:22;10.27;;;7.80;;
5742;SDS011;2896;53.500;10.020;2023-04-06T03:32:49;9.93;;;8.77;;
5742;SDS011;2896;53.500;10.020;2023-04-06T03:35:16;11.53;;;9.33;;
5742;SDS011;2896;53.500;10.020;2023-04-06T03:37:42;12.40;;;8.40;;
5742;SDS011;2896;53.500;10.020;2023-04-06T03:40:11;11.10;;;8.33;;
5742;SDS011;2896;53.500;10.020;2023-04-06T03:42:37;12.90;;;9.50;;
5742;SDS011;2896;53.500;10.020;2023-04-06T03:45:04;12.37;;;9.80;;
5742;SDS011;2896;53.500;10.020;2023-04-06T03:47:31;12.87;;;9.27;;
5742;SDS011;2896;53.500;10.020;2023-04-06T03:49:58;12.80;;;9.57;;
5742;SDS011;2896;53.500;10.020;2023-04-06T03:52:25;11.40;;;9.10;;
5742;SDS011;2896;53.500;10.020;2023-04-06T03:54:52;14.13;;;10.50;;
5742;SDS011;2896;53.500;10.020;2023-04-06T03:57:20;11.87;;;10.40;;
5742;SDS011;2896;53.500;10.020;2023-04-06T03:59:46;13.33;;;9.80;;
5742;SDS011;2896;53.500;10.020;2023-04-06T04:02:13;12.87;;;9.90;;
5742;SDS011;2896;53.500;10.020;2023-04-06T04:04:40;12.20;;;9.93;;
5742;SDS011;2896;53.500;10.020;2023-04-06T04:07:06;13.83;;;10.43;;
5742;SDS011;2896;53.500;10.020;2023-04-06T04:09:33;15.90;;;11.40;;
5742;SDS011;2896;53.500;10.020;2023-04-06T04:12:00;16.37;;;12.77;;
5742;SDS011;2896;53.500;10.020;2023-04-06T04:14:28;23.47;;;17.13;;
5742;SDS011;2896;53.500;10.020;2023-04-06T04:16:55;24.93;;;16.37;;
5742;SDS011;2896;53.500;10.020;2023-04-06T04:19:21;23.70;;;16.60;;
5742;SDS011;2896;53.500;10.020;2023-04-06T04:21:48;23.33;;;16.50;;
5742;SDS011;2896;53.500;10.020;2023-04-06T04:24:14;21.43;;;14.00;;
5742;SDS011;2896;53.500;10.020;2023-04-06T04:26:41;19.70;;;14.33;;
5742;SDS011;2896;53.500;10.020;2023-04-06T04:29:08;20.90;;;15.03;;
5742;SDS011;2896;53.500;10.020;2023-04-06T04:31:36;26.33;;;18.60;;
5742;SDS011;2896;53.500;10.020;2023-04-06T04:34:02;25.03;;;17.00;;
5742;SDS011;2896;53.500;10.020;2023-04-06T04:36:31;22.67;;;15.60;;
5742;SDS011;2896;53.500;10.020;2023-04-06T04:38:58;24.00;;;15.20;;
5742;SDS011;2896;53.500;10.020;2023-04-06T04:41:26;24.70;;;14.30;;
5742;SDS011;2896;53.500;10.020;2023-04-06T04:43:52;19.47;;;13.80;;
5742;SDS011;2896;53.500;10.020;2023-04-06T04:46:19;17.13;;;13.30;;
5742;SDS011;2896;53.500;10.020;2023-04-06T04:48:47;19.30;;;13.63;;
5742;SDS011;2896;53.500;10.020;2023-04-06T04:51:15;21.17;;;15.77;;
5742;SDS011;2896;53.500;10.020;2023-04-06T04:53:41;17.80;;;12.80;;
5742;SDS011;2896;53.500;10.020;2023-04-06T04:56:08;17.10;;;13.27;;
5742;SDS011;2896;53.500;10.020;2023-04-06T04:58:35;20.57;;;12.53;;
5742;SDS011;2896;53.500;10.020;2023-04-06T05:01:01;21.83;;;13.30;;
5742;SDS011;2896;53.500;10.020;2023-04-06T05:03:28;18.50;;;12.87;;
5742;SDS011;2896;53.500;10.020;2023-04-06T05:05:56;21.70;;;13.20;;
5742;SDS011;2896;53.500;10.020;2023-04-06T05:08:23;18.60;;;12.70;;
5742;SDS011;2896;53.500;10.020;2023-04-06T05:10:50;19.30;;;12.80;;
5742;SDS011;2896;53.500;10.020;2023-04-06T05:13:16;20.33;;;12.50;;
5742;SDS011;2896;53.500;10.020;2023-04-06T05:15:43;20.90;;;13.60;;
5742;SDS011;2896;53.500;10.020;2023-04-06T05:18:10;28.63;;;13.87;;
5742;SDS011;2896;53.500;10.020;2023-04-06T05:20:37;22.30;;;14.07;;
5742;SDS011;2896;53.500;10.020;2023-04-06T05:23:06;22.97;;;13.00;;
5742;SDS011;2896;53.500;10.020;2023-04-06T05:25:32;18.90;;;13.57;;
5742;SDS011;2896;53.500;10.020;2023-04-06T05:27:59;21.20;;;13.60;;
5742;SDS011;2896;53.500;10.020;2023-04-06T05:30:26;15.70;;;12.40;;
5742;SDS011;2896;53.500;10.020;2023-04-06T05:32:52;22.77;;;12.83;;
5742;SDS011;2896;53.500;10.020;2023-04-06T05:35:20;22.70;;;13.07;;
5742;SDS011;2896;53.500;10.020;2023-04-06T05:37:46;21.33;;;12.53;;
5742;SDS011;2896;53.500;10.020;2023-04-06T05:40:14;19.00;;;12.97;;
5742;SDS011;2896;53.500;10.020;2023-04-06T05:42:41;19.57;;;13.13;;
5742;SDS011;2896;53.500;10.020;2023-04-06T05:45:09;22.63;;;14.10;;
5742;SDS011;2896;53.500;10.020;2023-04-06T05:47:41;21.37;;;14.80;;
5742;SDS011;2896;53.500;10.020;2023-04-06T05:50:08;19.13;;;13.43;;
5742;SDS011;2896;53.500;10.020;2023-04-06T05:52:35;19.93;;;13.40;;
5742;SDS011;2896;53.500;10.020;2023-04-06T05:55:02;27.70;;;15.10;;
5742;SDS011;2896;53.500;10.020;2023-04-06T05:57:30;18.67;;;13.37;;
5742;SDS011;2896;53.500;10.020;2023-04-06T05:59:57;24.33;;;16.10;;
5742;SDS011;2896;53.500;10.020;2023-04-06T06:02:24;20.70;;;15.20;;
5742;SDS011;2896;53.500;10.020;2023-04-06T06:04:51;22.83;;;14.27;;
5742;SDS011;2896;53.500;10.020;2023-04-06T06:07:17;24.60;;;15.63;;
5742;SDS011;2896;53.500;10.020;2023-04-06T06:09:44;21.57;;;16.10;;
5742;SDS011;2896;53.500;10.020;2023-04-06T06:12:10;23.73;;;14.70;;
5742;SDS011;2896;53.500;10.020;2023-04-06T06:14:38;17.80;;;13.90;;
5742;SDS011;2896;53.500;10.020;2023-04-06T06:17:05;16.50;;;13.40;;
5742;SDS011;2896;53.500;10.020;2023-04-06T06:19:31;20.53;;;14.43;;
5742;SDS011;2896;53.500;10.020;2023-04-06T06:21:58;18.90;;;13.67;;
5742;SDS011;2896;53.500;10.020;2023-04-06T06:24:27;23.87;;;10.83;;
5742;SDS011;2896;53.500;10.020;2023-04-06T06:26:53;11.40;;;9.93;;
5742;SDS011;2896;53.500;10.020;2023-04-06T06:29:20;10.53;;;9.40;;
5742;SDS011;2896;53.500;10.020;2023-04-06T06:31:50;12.23;;;9.20;;
5742;SDS011;2896;53.500;10.020;2023-04-06T06:34:16;10.87;;;9.73;;
5742;SDS011;2896;53.500;10.020;2023-04-06T06:36:43;11.27;;;8.83;;
5742;SDS011;2896;53.500;10.020;2023-04-06T06:39:09;15.07;;;9.63;;
5742;SDS011;2896;53.500;10.020;2023-04-06T06:41:36;11.00;;;9.90;;
5742;SDS011;2896;53.500;10.020;2023-04-06T06:44:03;19.50;;;9.40;;
5742;SDS011;2896;53.500;10.020;2023-04-06T06:46:30;9.57;;;8.57;;
5742;SDS011;2896;53.500;10.020;2023-04-06T06:48:58;10.53;;;9.30;;
5742;SDS011;2896;53.500;10.020;2023-04-06T06:51:25;10.33;;;9.33;;
5742;SDS011;2896;53.500;10.020;2023-04-06T06:53:51;17.97;;;9.70;;
5742;SDS011;2896;53.500;10.020;2023-04-06T06:56:18;11.47;;;10.10;;
5742;SDS011;2896;53.500;10.020;2023-04-06T06:58:45;15.03;;;8.83;;
5742;SDS011;2896;53.500;10.020;2023-04-06T07:01:11;11.33;;;9.20;;
5742;SDS011;2896;53.500;10.020;2023-04-06T07:03:38;13.90;;;9.93;;
5742;SDS011;2896;53.500;10.020;2023-04-06T07:06:06;14.43;;;9.40;;
5742;SDS011;2896;53.500;10.020;2023-04-06T07:08:33;11.57;;;8.77;;
5742;SDS011;2896;53.500;10.020;2023-04-06T07:10:59;12.10;;;9.77;;
5742;SDS011;2896;53.500;10.020;2023-04-06T07:13:26;10.77;;;8.60;;
5742;SDS011;2896;53.500;10.020;2023-04-06T07:15:53;10.37;;;9.10;;
5742;SDS011;2896;53.500;10.020;2023-04-06T07:18:20;9.73;;;8.63;;
5742;SDS011;2896;53.500;10.020;2023-04-06T07:20:47;10.67;;;8.77;;
5742;SDS011;2896;53.500;10.020;2023-04-06T07:23:15;10.00;;;8.33;;
5742;SDS011;2896;53.500;10.020;2023-04-06T07:25:41;13.33;;;7.80;;
5742;SDS011;2896;53.500;10.020;2023-04-06T07:28:08;14.10;;;8.53;;
5742;SDS011;2896;53.500;10.020;2023-04-06T07:30:34;10.93;;;8.03;;
5742;SDS011;2896;53.500;10.020;2023-04-06T07:33:03;17.03;;;8.67;;
5742;SDS011;2896;53.500;10.020;2023-04-06T07:35:30;10.07;;;8.13;;
5742;SDS011;2896;53.500;10.020;2023-04-06T07:37:57;9.57;;;8.57;;
5742;SDS011;2896;53.500;10.020;2023-04-06T07:40:25;10.40;;;8.00;;
5742;SDS011;2896;53.500;10.020;2023-04-06T07:42:52;13.90;;;8.10;;
5742;SDS011;2896;53.500;10.020;2023-04-06T07:45:18;9.37;;;8.47;;
5742;SDS011;2896;53.500;10.020;2023-04-06T07:47:45;10.50;;;7.67;;
5742;SDS011;2896;53.500;10.020;2023-04-06T07:50:12;12.07;;;8.70;;
5742;SDS011;2896;53.500;10.020;2023-04-06T07:52:39;9.40;;;8.17;;
5742;SDS011;2896;53.500;10.020;2023-04-06T07:55:05;18.70;;;7.87;;
5742;SDS011;2896;53.500;10.020;2023-04-06T07:57:34;15.27;;;7.80;;
5742;SDS011;2896;53.500;10.020;2023-04-06T08:00:01;10.90;;;8.80;;
5742;SDS011;2896;53.500;10.020;2023-04-06T08:02:29;8.43;;;7.33;;
5742;SDS011;2896;53.500;10.020;2023-04-06T08:04:55;8.67;;;7.87;;
5742;SDS011;2896;53.500;10.020;2023-04-06T08:07:22;11.27;;;7.87;;
5742;SDS011;2896;53.500;10.020;2023-04-06T08:09:49;12.03;;;7.80;;
5742;SDS011;2896;53.500;10.020;2023-04-06T08:12:15;9.00;;;7.63;;
5742;SDS011;2896;53.500;10.020;2023-04-06T08:14:43;13.50;;;7.30;;
5742;SDS011;2896;53.500;10.020;2023-04-06T08:17:10;7.63;;;6.83;;
5742;SDS011;2896;53.500;10.020;2023-04-06T08:19:36;9.93;;;7.80;;
5742;SDS011;2896;53.500;10.020;2023-04-06T08:22:03;7.73;;;7.03;;
5742;SDS011;2896;53.500;10.020;2023-04-06T08:24:30;10.40;;;6.93;;
5742;SDS011;2896;53.500;10.020;2023-04-06T08:26:57;10.20;;;7.50;;
5742;SDS011;2896;53.500;10.020;2023-04-06T08:29:24;12.13;;;7.57;;
5742;SDS011;2896;53.500;10.020;2023-04-06T08:31:52;7.90;;;6.83;;
5742;SDS011;2896;53.500;10.020;2023-04-06T08:34:20;7.93;;;7.13;;
5742;SDS011;2896;53.500;10.020;2023-04-06T08:36:47;14.80;;;7.27;;
5742;SDS011;2896;53.500;10.020;2023-04-06T08:39:15;10.90;;;8.10;;
5742;SDS011;2896;53.500;10.020;2023-04-06T08:41:41;15.00;;;7.87;;
5742;SDS011;2896;53.500;10.020;2023-04-06T08:44:08;10.53;;;8.37;;
5742;SDS011;2896;53.500;10.020;2023-04-06T08:46:36;11.37;;;8.20;;
5742;SDS011;2896;53.500;10.020;2023-04-06T08:49:04;15.80;;;8.13;;
5742;SDS011;2896;53.500;10.020;2023-04-06T08:51:31;12.23;;;8.93;;
5742;SDS011;2896;53.500;10.020;2023-04-06T08:53:59;9.07;;;7.47;;
5742;SDS011;2896;53.500;10.020;2023-04-06T08:56:26;20.27;;;7.93;;
5742;SDS011;2896;53.500;10.020;2023-04-06T08:58:54;10.87;;;8.30;;
5742;SDS011;2896;53.500;10.020;2023-04-06T09:01:22;9.63;;;7.10;;
5742;SDS011;2896;53.500;10.020;2023-04-06T09:03:51;9.37;;;8.37;;
5742;SDS011;2896;53.500;10.020;2023-04-06T09:06:22;9.17;;;6.87;;
5742;SDS011;2896;53.500;10.020;2023-04-06T09:08:49;10.70;;;7.33;;
5742;SDS011;2896;53.500;10.020;2023-04-06T09:11:15;11.23;;;7.67;;
5742;SDS011;2896;53.500;10.020;2023-04-06T09:13:45;10.90;;;6.87;;
5742;SDS011;2896;53.500;10.020;2023-04-06T09:16:14;11.77;;;7.10;;
5742;SDS011;2896;53.500;10.020;2023-04-06T09:18:41;11.10;;;7.47;;
5742;SDS011;2896;53.500;10.020;2023-04-06T09:21:08;8.00;;;7.00;;
5742;SDS011;2896;53.500;10.020;2023-04-06T09:23:37;6.63;;;5.90;;
5742;SDS011;2896;53.500;10.020;2023-04-06T09:26:05;7.43;;;5.40;;
5742;SDS011;2896;53.500;10.020;2023-04-06T09:28:40;6.83;;;5.67;;
5742;SDS011;2896;53.500;10.020;2023-04-06T09:31:11;9.53;;;5.60;;
5742;SDS011;2896;53.500;10.020;2023-04-06T09:33:38;7.80;;;6.17;;
5742;SDS011;2896;53.500;10.020;2023-04-06T09:36:07;5.07;;;4.57;;
5742;SDS011;2896;53.500;10.020;2023-04-06T09:38:35;4.77;;;4.37;;
5742;SDS011;2896;53.500;10.020;2023-04-06T09:41:04;6.40;;;4.20;;
5742;SDS011;2896;53.500;10.020;2023-04-06T09:43:31;7.63;;;4.27;;
5742;SDS011;2896;53.500;10.020;2023-04-06T09:45:57;4.20;;;3.80;;
5742;SDS011;2896;53.500;10.020;2023-04-06T09:48:27;5.03;;;4.33;;
5742;SDS011;2896;53.500;10.020;2023-04-06T09:50:58;7.93;;;4.70;;
5742;SDS011;2896;53.500;10.020;2023-04-06T09:53:28;7.63;;;4.57;;
5742;SDS011;2896;53.500;10.020;2023-04-06T09:55:59;4.47;;;4.17;;
5742;SDS011;2896;53.500;10.020;2023-04-06T09:58:31;7.10;;;5.13;;
5742;SDS011;2896;53.500;10.020;2023-04-06T10:01:02;4.20;;;3.83;;
5742;SDS011;2896;53.500;10.020;2023-04-06T10:03:34;4.63;;;4.07;;
5742;SDS011;2896;53.500;10.020;2023-04-06T10:06:08;5.10;;;4.60;;
5742;SDS011;2896;53.500;10.020;2023-04-06T10:08:37;7.60;;;5.00;;
5742;SDS011;2896;53.500;10.020;2023-04-06T10:11:07;5.60;;;5.00;;
5742;SDS011;2896;53.500;10.020;2023-04-06T10:13:35;8.93;;;4.80;;
5742;SDS011;2896;53.500;10.020;2023-04-06T10:16:02;11.40;;;5.20;;
5742;SDS011;2896;53.500;10.020;2023-04-06T10:18:29;12.53;;;5.13;;
5742;SDS011;2896;53.500;10.020;2023-04-06T10:20:57;5.50;;;4.83;;
5742;SDS011;2896;53.500;10.020;2023-04-06T10:23:29;5.80;;;4.60;;
5742;SDS011;2896;53.500;10.020;2023-04-06T10:25:59;5.73;;;5.17;;
5742;SDS011;2896;53.500;10.020;2023-04-06T10:28:31;6.80;;;5.10;;
5742;SDS011;2896;53.500;10.020;2023-04-06T10:31:01;6.63;;;5.80;;
5742;SDS011;2896;53.500;10.020;2023-04-06T10:33:30;12.67;;;5.50;;
5742;SDS011;2896;53.500;10.020;2023-04-06T10:35:56;11.53;;;8.93;;
5742;SDS011;2896;53.500;10.020;2023-04-06T10:38:32;6.53;;;6.00;;
5742;SDS011;2896;53.500;10.020;2023-04-06T10:41:03;6.70;;;6.00;;
5742;SDS011;2896;53.500;10.020;2023-04-06T10:43:32;7.93;;;6.13;;
5742;SDS011;2896;53.500;10.020;2023-04-06T10:46:01;12.40;;;5.63;;
5742;SDS011;2896;53.500;10.020;2023-04-06T10:48:36;7.23;;;6.53;;
5742;SDS011;2896;53.500;10.020;2023-04-06T10:51:07;7.20;;;5.70;;
5742;SDS011;2896;53.500;10.020;2023-04-06T10:53:35;8.30;;;6.67;;
5742;SDS011;2896;53.500;10.020;2023-04-06T10:56:02;7.70;;;6.83;;
5742;SDS011;2896;53.500;10.020;2023-04-06T10:58:29;8.00;;;7.00;;
5742;SDS011;2896;53.500;10.020;2023-04-06T11:00:57;8.90;;;6.47;;
5742;SDS011;2896;53.500;10.020;2023-04-06T11:03:24;8.53;;;6.70;;
5742;SDS011;2896;53.500;10.020;2023-04-06T11:05:52;10.80;;;6.70;;
5742;SDS011;2896;53.500;10.020;2023-04-06T11:08:22;7.83;;;7.00;;
5742;SDS011;2896;53.500;10.020;2023-04-06T11:10:49;8.43;;;7.40;;
5742;SDS011;2896;53.500;10.020;2023-04-06T11:13:16;8.27;;;7.40;;
5742;SDS011;2896;53.500;10.020;2023-04-06T11:15:44;13.20;;;7.97;;
5742;SDS011;2896;53.500;10.020;2023-04-06T11:18:11;8.90;;;7.07;;
5742;SDS011;2896;53.500;10.020;2023-04-06T11:20:38;10.33;;;7.57;;
5742;SDS011;2896;53.500;10.020;2023-04-06T11:23:04;10.93;;;7.73;;
5742;SDS011;2896;53.500;10.020;2023-04-06T11:25:34;9.17;;;7.67;;
5742;SDS011;2896;53.500;10.020;2023-04-06T11:28:01;9.70;;;7.30;;
5742;SDS011;2896;53.500;10.020;2023-04-06T11:30:28;8.90;;;7.43;;
5742;SDS011;2896;53.500;10.020;2023-04-06T11:33:00;9.10;;;8.20;;
5742;SDS011;2896;53.500;10.020;2023-04-06T11:35:28;9.00;;;6.83;;
5742;SDS011;2896;53.500;10.020;2023-04-06T11:37:58;17.83;;;7.70;;
5742;SDS011;2896;53.500;10.020;2023-04-06T11:40:29;11.20;;;7.70;;
5742;SDS011;2896;53.500;10.020;2023-04-06T11:42:58;11.30;;;7.50;;
5742;SDS011;2896;53.500;10.020;2023-04-06T11:45:25;7.47;;;6.77;;
5742;SDS011;2896;53.500;10.020;2023-04-06T11:47:56;8.07;;;7.27;;
5742;SDS011;2896;53.500;10.020;2023-04-06T11:50:24;8.23;;;6.53;;
5742;SDS011;2896;53.500;10.020;2023-04-06T11:52:57;7.70;;;6.90;;
5742;SDS011;2896;53.500;10.020;2023-04-06T11:55:25;9.13;;;7.20;;
5742;SDS011;2896;53.500;10.020;2023-04-06T11:57:52;11.43;;;8.20;;
5742;SDS011;2896;53.500;10.020;2023-04-06T12:00:19;9.87;;;7.27;;
5742;SDS011;2896;53.500;10.020;2023-04-06T12:02:47;8.33;;;7.40;;
5742;SDS011;2896;53.500;10.020;2023-04-06T12:05:16;9.07;;;8.03;;
5742;SDS011;2896;53.500;10.020;2023-04-06T12:07:43;8.43;;;7.50;;
5742;SDS011;2896;53.500;10.020;2023-04-06T12:10:11;12.37;;;8.53;;
5742;SDS011;2896;53.500;10.020;2023-04-06T12:12:37;10.20;;;7.90;;
5742;SDS011;2896;53.500;10.020;2023-04-06T12:15:05;11.17;;;7.93;;
5742;SDS011;2896;53.500;10.020;2023-04-06T12:17:32;7.57;;;6.93;;
5742;SDS011;2896;53.500;10.020;2023-04-06T12:20:00;8.57;;;7.73;;
5742;SDS011;2896;53.500;10.020;2023-04-06T12:22:29;12.73;;;7.37;;
5742;SDS011;2896;53.500;10.020;2023-04-06T12:24:55;10.40;;;8.23;;
5742;SDS011;2896;53.500;10.020;2023-04-06T12:27:22;16.40;;;12.17;;
5742;SDS011;2896;53.500;10.020;2023-04-06T12:29:48;21.40;;;15.33;;
5742;SDS011;2896;53.500;10.020;2023-04-06T12:32:15;10.90;;;8.97;;
5742;SDS011;2896;53.500;10.020;2023-04-06T12:34:42;11.47;;;10.00;;
5742;SDS011;2896;53.500;10.020;2023-04-06T12:37:08;9.27;;;8.33;;
5742;SDS011;2896;53.500;10.020;2023-04-06T12:39:36;10.90;;;7.97;;
5742;SDS011;2896;53.500;10.020;2023-04-06T12:42:03;10.77;;;8.80;;
5742;SDS011;2896;53.500;10.020;2023-04-06T12:44:30;9.17;;;8.27;;
5742;SDS011;2896;53.500;10.020;2023-04-06T12:46:56;8.20;;;7.40;;
5742;SDS011;2896;53.500;10.020;2023-04-06T12:49:23;12.10;;;8.10;;
5742;SDS011;2896;53.500;10.020;2023-04-06T12:51:50;9.40;;;8.23;;
5742;SDS011;2896;53.500;10.020;2023-04-06T12:54:17;8.87;;;7.90;;
5742;SDS011;2896;53.500;10.020;2023-04-06T12:56:46;9.57;;;8.40;;
5742;SDS011;2896;53.500;10.020;2023-04-06T12:59:12;12.13;;;7.73;;
5742;SDS011;2896;53.500;10.020;2023-04-06T13:01:39;11.90;;;8.97;;
5742;SDS011;2896;53.500;10.020;2023-04-06T13:04:06;14.60;;;8.40;;
5742;SDS011;2896;53.500;10.020;2023-04-06T13:06:32;11.27;;;7.67;;
5742;SDS011;2896;53.500;10.020;2023-04-06T13:08:59;10.50;;;8.37;;
5742;SDS011;2896;53.500;10.020;2023-04-06T13:11:26;8.83;;;7.67;;
5742;SDS011;2896;53.500;10.020;2023-04-06T13:13:54;10.40;;;7.93;;
5742;SDS011;2896;53.500;10.020;2023-04-06T13:16:20;8.80;;;7.90;;
5742;SDS011;2896;53.500;10.020;2023-04-06T13:18:47;10.47;;;8.40;;
5742;SDS011;2896;53.500;10.020;2023-04-06T13:21:14;11.50;;;8.43;;
5742;SDS011;2896;53.500;10.020;2023-04-06T13:23:41;11.77;;;7.67;;
5742;SDS011;2896;53.500;10.020;2023-04-06T13:26:08;10.27;;;8.87;;
5742;SDS011;2896;53.500;10.020;2023-04-06T13:28:36;11.03;;;8.90;;
5742;SDS011;2896;53.500;10.020;2023-04-06T13:31:05;9.33;;;7.20;;
5742;SDS011;2896;53.500;10.020;2023-04-06T13:33:32;11.60;;;8.50;;
5742;SDS011;2896;53.500;10.020;2023-04-06T13:35:59;9.43;;;7.70;;
5742;SDS011;2896;53.500;10.020;2023-04-06T13:38:25;9.63;;;8.50;;
5742;SDS011;2896;53.500;10.020;2023-04-06T13:40:52;8.80;;;8.00;;
5742;SDS011;2896;53.500;10.020;2023-04-06T13:43:19;9.97;;;8.80;;
5742;SDS011;2896;53.500;10.020;2023-04-06T13:45:48;18.53;;;9.40;;
5742;SDS011;2896;53.500;10.020;2023-04-06T13:48:16;17.57;;;9.53;;
5742;SDS011;2896;53.500;10.020;2023-04-06T13:50:43;9.67;;;8.57;;
5742;SDS011;2896;53.500;10.020;2023-04-06T13:53:10;9.13;;;8.17;;
5742;SDS011;2896;53.500;10.020;2023-04-06T13:55:37;9.53;;;8.63;;
5742;SDS011;2896;53.500;10.020;2023-04-06T13:58:03;10.13;;;8.77;;
5742;SDS011;2896;53.500;10.020;2023-04-06T14:00:30;10.83;;;8.93;;
5742;SDS011;2896;53.500;10.020;2023-04-06T14:02:57;9.60;;;8.20;;
5742;SDS011;2896;53.500;10.020;2023-04-06T14:05:25;8.93;;;7.70;;
5742;SDS011;2896;53.500;10.020;2023-04-06T14:07:52;10.27;;;9.20;;
5742;SDS011;2896;53.500;10.020;2023-04-06T14:10:19;9.73;;;8.30;;
5742;SDS011;2896;53.500;10.020;2023-04-06T14:12:48;10.67;;;9.00;;
5742;SDS011;2896;53.500;10.020;2023-04-06T14:15:15;9.33;;;8.43;;
5742;SDS011;2896;53.500;10.020;2023-04-06T14:17:42;11.57;;;8.07;;
5742;SDS011;2896;53.500;10.020;2023-04-06T14:20:10;10.67;;;8.80;;
5742;SDS011;2896;53.500;10.020;2023-04-06T14:22:40;12.00;;;9.13;;
5742;SDS011;2896;53.500;10.020;2023-04-06T14:25:07;10.43;;;8.87;;
5742;SDS011;2896;53.500;10.020;2023-04-06T14:27:36;10.07;;;9.00;;
5742;SDS011;2896;53.500;10.020;2023-04-06T14:30:03;9.53;;;7.30;;
5742;SDS011;2896;53.500;10.020;2023-04-06T14:32:30;11.73;;;8.30;;
5742;SDS011;2896;53.500;10.020;2023-04-06T14:34:57;9.87;;;8.90;;
5742;SDS011;2896;53.500;10.020;2023-04-06T14:37:23;8.87;;;7.97;;
5742;SDS011;2896;53.500;10.020;2023-04-06T14:39:52;11.10;;;8.20;;
5742;SDS011;2896;53.500;10.020;2023-04-06T14:42:19;9.90;;;7.20;;
5742;SDS011;2896;53.500;10.020;2023-04-06T14:44:45;9.73;;;8.10;;
5742;SDS011;2896;53.500;10.020;2023-04-06T14:47:16;11.47;;;7.70;;
5742;SDS011;2896;53.500;10.020;2023-04-06T14:49:45;9.17;;;8.17;;
5742;SDS011;2896;53.500;10.020;2023-04-06T14:52:12;12.00;;;7.10;;
5742;SDS011;2896;53.500;10.020;2023-04-06T14:54:39;17.27;;;8.00;;